Time;durP1;ratioP1;P1;durP2;ratioP2;P2;SDS_P1;SDS_P2;PMS_P1;PMS_P2;Temp;Humidity;BMP_temperature;BMP_pressure;BME280_temperature;BME280_humidity;BME280_pressure;Samples;Min_cycle;Max_cycle;Signal;HPM_P1;HPM_P2
2022/08/24 04:22:37;;;;;;;6.47;3.78;;;;;;;15.09;80.49;100314.16;5090737;28;20332;-67
2022/08/24 04:25:04;;;;;;;4.90;3.30;;;;;;;15.08;80.34;100320.56;5090398;28;20477;-67
2022/08/24 04:27:30;;;;;;;3.47;2.95;;;;;;;15.07;80.68;100320.75;5089468;28;20511;-68
2022/08/24 04:29:56;;;;;;;3.83;3.17;;;;;;;15.08;80.61;100320.56;5088628;28;20040;-66
2022/08/24 04:32:23;;;;;;;5.03;3.17;;;;;;;15.09;80.79;100332.09;5089475;28;20025;-68
2022/08/24 04:34:49;;;;;;;4.35;3.03;;;;;;;15.07;80.81;100331.50;5089858;28;20114;-69
2022/08/24 04:37:16;;;;;;;3.67;2.42;;;;;;;15.02;81.13;100323.22;5090073;28;20036;-67
2022/08/24 04:39:42;;;;;;;3.75;3.08;;;;;;;15.08;80.93;100322.41;5088191;28;20036;-68
2022/08/24 04:42:16;;;;;;;4.38;2.97;;;;;;;15.08;80.78;100328.59;5087666;28;20033;-68
2022/08/24 04:44:43;;;;;;;4.00;3.08;;;;;;;15.11;80.82;100324.69;5089125;28;20043;-68
2022/08/24 04:47:08;;;;;;;3.30;2.72;;;;;;;15.07;81.12;100332.31;5088094;28;20032;-68
2022/08/24 04:49:37;;;;;;;5.05;2.80;;;;;;;15.09;81.41;100329.44;5087434;28;20036;-68
2022/08/24 04:52:04;;;;;;;4.00;3.25;;;;;;;15.09;81.58;100340.97;5087958;28;20037;-66
2022/08/24 04:54:31;;;;;;;5.15;2.92;;;;;;;15.12;81.58;100343.25;5087854;28;20059;-68
2022/08/24 04:57:09;;;;;;;4.50;2.95;;;;;;;15.14;81.41;100345.75;5088146;28;20488;-68
2022/08/24 04:59:35;;;;;;;3.20;2.90;;;;;;;15.15;81.70;100336.69;5088097;28;20049;-69
2022/08/24 05:02:01;;;;;;;3.75;3.22;;;;;;;15.20;81.51;100343.09;5088784;28;20020;-67
2022/08/24 05:04:26;;;;;;;4.55;2.83;;;;;;;15.25;81.58;100350.53;5089243;28;20049;-68
2022/08/24 05:06:51;;;;;;;5.10;3.70;;;;;;;15.30;81.64;100347.25;5088413;28;20032;-68
2022/08/24 05:09:18;;;;;;;4.72;3.60;;;;;;;15.34;81.86;100349.34;5086970;28;20060;-67
2022/08/24 05:11:44;;;;;;;3.95;3.50;;;;;;;15.36;81.33;100347.25;5088834;28;20064;-68
2022/08/24 05:14:10;;;;;;;3.72;3.05;;;;;;;15.39;80.91;100352.25;5087049;28;20574;-68
2022/08/24 05:16:36;;;;;;;3.30;2.70;;;;;;;15.35;81.43;100348.28;5087052;28;20470;-68
2022/08/24 05:19:03;;;;;;;4.10;3.25;;;;;;;15.39;81.29;100354.94;5087127;28;20064;-68
2022/08/24 05:21:29;;;;;;;3.20;2.80;;;;;;;15.40;80.98;100359.25;5086886;28;20036;-67
2022/08/24 05:23:56;;;;;;;4.67;3.07;;;;;;;15.42;80.64;100364.41;5087029;28;20138;-68
2022/08/24 05:26:28;;;;;;;3.72;2.88;;;;;;;15.45;80.81;100361.31;5088093;28;20332;-68
2022/08/24 05:28:59;;;;;;;3.75;3.05;;;;;;;15.43;80.86;100358.84;5088352;28;20401;-68
2022/08/24 05:31:32;;;;;;;3.67;3.00;;;;;;;15.53;80.97;100369.22;5087171;28;20128;-68
2022/08/24 05:34:03;;;;;;;4.43;3.58;;;;;;;15.55;80.78;100361.78;5074395;28;20631;-68
2022/08/24 05:36:32;;;;;;;3.58;3.25;;;;;;;15.63;79.91;100363.47;5073251;28;20041;-67
2022/08/24 05:39:00;;;;;;;4.45;3.50;;;;;;;15.69;79.90;100370.72;5073463;28;20044;-68
2022/08/24 05:41:27;;;;;;;4.07;3.17;;;;;;;15.72;79.82;100367.63;5073058;28;20127;-68
2022/08/24 05:43:59;;;;;;;3.70;2.90;;;;;;;15.74;79.80;100371.75;5073137;28;20089;-68
2022/08/24 05:46:26;;;;;;;4.18;3.03;;;;;;;15.79;79.49;100378.38;5074216;28;20039;-68
2022/08/24 05:48:52;;;;;;;4.15;3.03;;;;;;;15.84;80.60;100381.28;5072726;28;20068;-67
2022/08/24 05:51:32;;;;;;;4.45;3.28;;;;;;;15.88;80.38;100377.16;5073035;28;20064;-48
2022/08/24 05:54:03;;;;;;;3.15;2.85;;;;;;;15.90;80.43;100375.91;5072874;28;20036;-48
2022/08/24 05:56:37;;;;;;;5.68;3.53;;;;;;;15.97;80.19;100375.91;5072739;28;20075;-49
2022/08/24 05:59:03;;;;;;;3.65;2.92;;;;;;;15.99;79.96;100376.56;5072799;28;20064;-49
2022/08/24 06:01:28;;;;;;;5.35;3.25;;;;;;;16.04;79.97;100381.28;5073970;28;20033;-50
2022/08/24 06:03:56;;;;;;;4.38;2.97;;;;;;;16.06;80.15;100371.19;5072772;28;20044;-48
2022/08/24 06:06:23;;;;;;;4.28;3.30;;;;;;;16.09;80.60;100376.97;5072580;28;20131;-48
2022/08/24 06:08:51;;;;;;;3.60;2.70;;;;;;;16.13;80.09;100382.75;5072434;28;20068;-47
2022/08/24 06:11:34;;;;;;;3.55;3.22;;;;;;;16.18;79.56;100382.97;5072381;28;20507;-48
2022/08/24 06:14:04;;;;;;;3.67;2.95;;;;;;;16.20;79.75;100380.91;5072467;28;20042;-47
2022/08/24 06:16:33;;;;;;;4.78;3.38;;;;;;;16.29;78.02;100385.03;5072518;28;20044;-47
2022/08/24 06:18:59;;;;;;;4.80;3.40;;;;;;;16.35;78.59;100386.06;5072207;28;20571;-49
2022/08/24 06:21:27;;;;;;;4.55;3.13;;;;;;;16.41;78.71;100383.38;5072201;28;20114;-48
2022/08/24 06:23:53;;;;;;;6.40;3.53;;;;;;;16.44;79.19;100385.66;5072290;28;20048;-48
2022/08/24 06:29:05;;;;;;;7.82;3.45;;;;;;;16.62;78.39;100405.69;5071900;28;20036;-51
2022/08/24 06:31:39;;;;;;;6.22;3.17;;;;;;;16.66;78.20;100393.47;5071994;28;20037;-47
2022/08/24 06:34:06;;;;;;;4.15;3.25;;;;;;;16.78;78.38;100389.16;5072086;28;20577;-47
2022/08/24 06:36:33;;;;;;;4.25;3.33;;;;;;;16.87;77.58;100392.44;5072003;28;20036;-48
2022/08/24 06:38:59;;;;;;;7.18;3.65;;;;;;;17.02;75.99;100385.78;5071704;28;20090;-51
2022/08/24 06:41:25;;;;;;;4.68;3.28;;;;;;;17.16;75.51;100383.88;5071795;28;20036;-53
2022/08/24 06:43:51;;;;;;;5.50;3.10;;;;;;;17.27;75.73;100385.03;5071108;28;20040;-52
2022/08/24 06:46:17;;;;;;;4.72;2.92;;;;;;;17.47;75.18;100393.84;5071451;28;20063;-51
2022/08/24 06:48:46;;;;;;;8.00;3.53;;;;;;;17.57;74.35;100391.53;5071812;28;20432;-51
2022/08/24 06:51:14;;;;;;;4.50;3.13;;;;;;;17.73;74.35;100386.72;5071483;28;20036;-47
2022/08/24 06:53:40;;;;;;;5.47;2.80;;;;;;;17.84;73.22;100392.25;5072815;28;20032;-48
2022/08/24 06:56:07;;;;;;;4.25;3.28;;;;;;;17.97;73.20;100387.81;5071512;28;20051;-52
2022/08/24 06:58:34;;;;;;;3.55;2.83;;;;;;;18.13;71.64;100388.13;5072756;28;20447;-48
2022/08/24 07:01:11;;;;;;;2.85;2.25;;;;;;;18.42;69.84;100396.56;5071160;28;20028;-47
2022/08/24 07:03:37;;;;;;;3.97;2.90;;;;;;;18.50;69.04;100393.59;5071351;28;20051;-46
2022/08/24 07:06:17;;;;;;;2.88;2.50;;;;;;;18.64;67.97;100394.28;5071197;28;20044;-49
2022/08/24 07:08:43;;;;;;;3.83;2.80;;;;;;;18.86;68.13;100398.25;5071057;28;20562;-52
2022/08/24 07:11:13;;;;;;;5.43;2.78;;;;;;;18.99;66.85;100397.28;5070965;28;20037;-66
2022/08/24 07:13:39;;;;;;;3.33;2.33;;;;;;;19.28;65.75;100400.28;5071104;28;20036;-67
2022/08/24 07:16:05;;;;;;;3.05;2.40;;;;;;;19.33;65.45;100395.84;5070904;28;20036;-66
2022/08/24 07:18:33;;;;;;;4.10;2.60;;;;;;;19.43;64.35;100404.25;5070975;28;20515;-66
2022/08/24 07:21:01;;;;;;;2.83;2.38;;;;;;;19.56;64.07;100397.00;5071719;28;20068;-67
2022/08/24 07:23:36;;;;;;;2.95;2.30;;;;;;;19.69;63.85;100396.84;5070894;28;20036;-61
2022/08/24 07:26:17;;;;;;;2.45;2.20;;;;;;;19.93;62.71;100408.56;5070680;28;20120;-61
2022/08/24 07:28:43;;;;;;;4.45;2.95;;;;;;;19.97;62.62;100407.06;5070643;28;20033;-60
2022/08/24 07:31:09;;;;;;;4.25;2.42;;;;;;;20.07;61.92;100407.31;5070322;28;20040;-61
2022/08/24 07:33:41;;;;;;;2.67;2.17;;;;;;;20.09;61.39;100416.03;5070752;28;20069;-61
2022/08/24 07:36:06;;;;;;;3.08;2.35;;;;;;;20.20;61.57;100406.28;5070443;28;20044;-60
2022/08/24 07:38:32;;;;;;;3.92;2.50;;;;;;;20.40;60.13;100414.88;5070520;28;20070;-61
2022/08/24 07:41:00;;;;;;;3.70;2.58;;;;;;;20.58;59.97;100416.72;5070307;28;20040;-61
2022/08/24 07:43:25;;;;;;;4.45;2.40;;;;;;;20.71;58.90;100410.25;5071961;28;20214;-60
2022/08/24 07:45:52;;;;;;;3.30;2.70;;;;;;;20.78;58.08;100406.34;5070379;28;20048;-60
2022/08/24 07:48:18;;;;;;;2.60;2.40;;;;;;;20.87;57.48;100414.94;5070725;28;20048;-61
2022/08/24 07:50:45;;;;;;;4.22;2.78;;;;;;;20.96;57.30;100415.41;5070161;28;20363;-61
2022/08/24 07:53:12;;;;;;;2.78;2.45;;;;;;;21.07;57.61;100409.97;5070410;28;20048;-60
2022/08/24 07:55:38;;;;;;;3.05;2.70;;;;;;;21.20;56.89;100408.06;5070048;28;20036;-60
2022/08/24 07:58:04;;;;;;;6.75;2.78;;;;;;;21.37;56.50;100409.81;5070532;28;20411;-63
2022/08/24 08:00:29;;;;;;;5.30;2.58;;;;;;;21.48;55.90;100415.44;5070050;28;20032;-63
2022/08/24 08:03:01;;;;;;;3.75;2.47;;;;;;;21.59;56.18;100409.97;5070371;28;20048;-62
2022/08/24 08:05:27;;;;;;;3.97;2.70;;;;;;;21.72;56.27;100408.88;5070354;28;20037;-62
2022/08/24 08:07:54;;;;;;;3.85;2.45;;;;;;;21.94;55.39;100414.41;5070515;28;20042;-62
2022/08/24 08:10:22;;;;;;;3.15;2.25;;;;;;;21.99;54.87;100405.56;5071416;28;20040;-62
2022/08/24 08:12:48;;;;;;;3.03;2.40;;;;;;;22.14;54.44;100412.06;5070236;28;20576;-62
2022/08/24 08:15:13;;;;;;;3.30;2.40;;;;;;;22.32;53.83;100411.03;5071549;28;20120;-62
2022/08/24 08:17:50;;;;;;;2.72;2.28;;;;;;;22.48;52.49;100406.66;5070435;28;20036;-61
2022/08/24 08:20:15;;;;;;;2.85;2.40;;;;;;;22.71;51.65;100406.47;5069832;28;20091;-62
2022/08/24 08:26:00;;;;;;;2.35;2.10;;;;;;;23.09;50.80;100404.88;5060730;28;20568;-62
2022/08/24 08:28:47;;;;;;;3.13;2.60;;;;;;;23.22;50.74;100409.91;5070056;28;20037;-60
2022/08/24 08:31:12;;;;;;;3.10;2.25;;;;;;;23.45;49.48;100410.72;5069781;28;20033;-61
2022/08/24 08:33:39;;;;;;;3.65;2.20;;;;;;;23.70;49.17;100410.22;5069953;28;20439;-62
2022/08/24 08:36:14;;;;;;;4.18;2.35;;;;;;;23.77;48.59;100408.94;5069952;28;20032;-62
2022/08/24 08:38:44;;;;;;;2.85;2.28;;;;;;;23.95;47.34;100406.94;5069966;28;20121;-62
2022/08/24 08:41:21;;;;;;;5.57;2.17;;;;;;;24.08;46.77;100401.88;5069776;28;20036;-63
2022/08/24 08:44:14;;;;;;;3.47;2.70;;;;;;;24.21;46.89;100400.63;5069866;28;20032;-62
2022/08/24 08:46:52;;;;;;;4.00;2.28;;;;;;;24.48;45.86;100402.50;5069908;28;20442;-62
2022/08/24 08:49:52;;;;;;;2.92;2.15;;;;;;;24.70;45.45;100407.81;5069661;28;20037;-62
2022/08/24 08:52:26;;;;;;;2.40;1.98;;;;;;;24.90;45.29;100410.66;5069745;28;20040;-62
2022/08/24 08:55:15;;;;;;;3.22;2.17;;;;;;;25.03;45.29;100407.47;5069925;28;20028;-60
2022/08/24 08:57:55;;;;;;;2.17;1.90;;;;;;;25.27;43.84;100405.16;5069807;28;20277;-62
2022/08/24 09:00:38;;;;;;;3.65;2.22;;;;;;;25.34;44.28;100402.19;5070787;28;20040;-63
2022/08/24 09:03:20;;;;;;;3.38;2.17;;;;;;;25.51;44.10;100400.06;5069772;28;20041;-62
2022/08/24 09:06:34;;;;;;;2.05;1.85;;;;;;;25.73;43.31;100399.06;5070868;28;20049;-62
2022/08/24 09:09:01;;;;;;;3.03;2.30;;;;;;;25.88;43.63;100399.06;5056123;28;20114;-63
2022/08/24 09:11:42;;;;;;;5.07;2.10;;;;;;;25.98;43.70;100396.38;5073175;28;20045;-62
2022/08/24 09:14:31;;;;;;;2.67;2.15;;;;;;;26.30;42.97;100406.22;5074859;28;20025;-62
2022/08/24 09:17:18;;;;;;;2.78;2.20;;;;;;;26.46;42.57;100402.38;5073338;28;20070;-63
2022/08/24 09:20:06;;;;;;;2.20;1.80;;;;;;;26.60;42.01;100398.00;5074250;28;20474;-62
2022/08/24 09:22:46;;;;;;;3.38;2.38;;;;;;;26.84;42.03;100398.22;5073153;28;20036;-63
2022/08/24 09:25:23;;;;;;;2.83;2.28;;;;;;;26.99;41.81;100400.09;5074418;28;20478;-62
2022/08/24 09:28:01;;;;;;;4.30;2.35;;;;;;;27.18;41.95;100401.16;5073214;28;20036;-61
2022/08/24 09:30:55;;;;;;;3.92;2.50;;;;;;;27.29;39.83;100394.53;5073946;28;20154;-61
2022/08/24 09:33:44;;;;;;;3.35;1.90;;;;;;;27.54;40.54;100395.53;5074259;28;20037;-61
2022/08/24 09:36:23;;;;;;;2.63;1.92;;;;;;;27.75;39.62;100385.28;5068233;28;20049;-61
2022/08/24 09:39:13;;;;;;;3.33;2.00;;;;;;;28.02;38.88;100391.13;5074221;28;20047;-61
2022/08/24 09:42:17;;;;;;;2.30;2.00;;;;;;;28.42;38.36;100391.09;5074299;28;20048;-60
2022/08/24 09:45:00;;;;;;;2.20;1.92;;;;;;;28.67;35.46;100385.34;5052361;28;20486;-62
2022/08/24 09:47:47;;;;;;;1.98;1.70;;;;;;;28.83;34.52;100384.09;5074025;28;20029;-62
2022/08/24 09:50:45;;;;;;;1.73;1.40;;;;;;;29.19;32.76;100387.25;5073858;28;20063;-60
2022/08/24 09:53:20;;;;;;;2.35;1.75;;;;;;;29.61;32.75;100387.56;5074112;28;20055;-62
2022/08/24 09:55:51;;;;;;;2.05;1.60;;;;;;;29.95;32.21;100390.88;5073894;28;20036;-61
2022/08/24 09:58:36;;;;;;;1.40;1.13;;;;;;;30.25;30.57;100383.25;5073938;28;20036;-62
2022/08/24 10:01:21;;;;;;;1.63;1.42;;;;;;;30.34;30.11;100380.66;5073669;28;20060;-62
2022/08/24 10:04:05;;;;;;;1.80;1.50;;;;;;;30.75;30.73;100384.28;5074083;28;20484;-62
2022/08/24 10:06:52;;;;;;;1.77;1.33;;;;;;;31.06;28.98;100390.00;5073673;28;20035;-62
2022/08/24 10:09:36;;;;;;;2.75;1.48;;;;;;;31.31;28.57;100383.19;5073420;28;20477;-61
2022/08/24 10:12:38;;;;;;;1.42;1.10;;;;;;;31.42;28.44;100381.00;5073626;28;20539;-61
2022/08/24 10:15:13;;;;;;;2.45;1.10;;;;;;;31.85;27.36;100373.16;5073366;28;20036;-62
2022/08/24 10:18:05;;;;;;;2.20;1.13;;;;;;;32.04;27.17;100367.47;5073349;28;20040;-61
2022/08/24 10:21:07;;;;;;;1.33;1.23;;;;;;;32.31;26.86;100369.25;5053033;28;20731;-62
2022/08/24 10:23:54;;;;;;;2.40;1.30;;;;;;;32.68;27.03;100362.50;5073296;28;20040;-63
2022/08/24 10:26:32;;;;;;;2.20;1.30;;;;;;;33.13;26.22;100367.06;5073257;28;20074;-63
2022/08/24 10:29:25;;;;;;;1.33;1.10;;;;;;;33.29;26.20;100359.13;5073092;28;20093;-62
2022/08/24 10:32:25;;;;;;;1.80;1.30;;;;;;;33.85;24.31;100358.22;5113305;22;20824;-65
2022/08/24 10:35:04;;;;;;;1.70;1.05;;;;;;;34.23;23.82;100354.75;5064078;28;20123;-65
2022/08/24 10:37:47;;;;;;;1.08;0.98;;;;;;;34.21;23.69;100348.75;5093215;28;20392;-66
2022/08/24 10:40:38;;;;;;;1.35;1.13;;;;;;;34.19;24.43;100354.59;5092736;28;20032;-65
2022/08/24 10:43:32;;;;;;;1.52;0.93;;;;;;;34.49;22.90;100347.22;5093355;28;20039;-65
2022/08/24 10:46:25;;;;;;;1.00;0.90;;;;;;;34.39;22.62;100347.56;5093094;28;20032;-65
2022/08/24 10:49:09;;;;;;;1.75;1.02;;;;;;;34.45;22.75;100337.97;5078492;28;20132;-65
2022/08/24 10:51:56;;;;;;;1.50;0.88;;;;;;;34.77;22.45;100335.72;5092817;28;20115;-65
2022/08/24 10:54:22;;;;;;;1.42;1.00;;;;;;;34.64;21.73;100337.56;5093026;28;20048;-66
2022/08/24 10:57:01;;;;;;;1.25;0.98;;;;;;;35.11;22.07;100345.81;5074511;28;20467;-65
2022/08/24 10:59:35;;;;;;;1.38;1.08;;;;;;;35.08;21.47;100340.91;5092475;28;20046;-65
2022/08/24 11:02:21;;;;;;;0.90;0.70;;;;;;;35.35;22.23;100339.63;5092585;28;20024;-65
2022/08/24 11:04:55;;;;;;;1.30;0.90;;;;;;;35.89;20.97;100336.88;5074319;28;20032;-65
2022/08/24 11:07:21;;;;;;;1.33;1.15;;;;;;;35.87;21.59;100337.25;5092768;28;20070;-65
2022/08/24 11:09:57;;;;;;;2.45;1.17;;;;;;;35.94;20.97;100335.91;5092399;28;20462;-65
2022/08/24 11:12:35;;;;;;;1.38;1.00;;;;;;;36.62;20.34;100336.28;5092533;28;20040;-65
2022/08/24 11:15:19;;;;;;;0.90;0.90;;;;;;;36.70;20.87;100340.91;5092476;28;20542;-65
2022/08/24 11:17:55;;;;;;;1.30;1.00;;;;;;;36.21;20.01;100329.72;5092280;28;20119;-65
2022/08/24 11:20:28;;;;;;;0.75;0.75;;;;;;;36.76;20.22;100330.38;5092008;28;20032;-65
2022/08/24 11:23:05;;;;;;;1.50;1.15;;;;;;;36.57;20.28;100317.88;5092351;28;20044;-66
2022/08/24 11:25:34;;;;;;;1.80;1.20;;;;;;;36.34;20.42;100328.59;5092384;28;20519;-65
2022/08/24 11:28:18;;;;;;;1.67;1.00;;;;;;;36.47;19.89;100312.00;5092348;28;20089;-65
2022/08/24 11:30:44;;;;;;;1.20;1.00;;;;;;;36.11;19.96;100310.75;5091069;28;20036;-65
2022/08/24 11:33:33;;;;;;;1.60;1.20;;;;;;;36.77;19.77;100316.16;5092294;28;20046;-65
2022/08/24 11:36:00;;;;;;;1.30;1.02;;;;;;;36.71;20.33;100312.00;5092138;28;20489;-65
2022/08/24 11:38:33;;;;;;;1.20;1.02;;;;;;;36.39;20.74;100316.50;5092197;28;20036;-65
2022/08/24 11:41:12;;;;;;;2.30;1.23;;;;;;;36.55;19.76;100313.84;5091825;28;20123;-66
2022/08/24 11:44:00;;;;;;;1.77;1.10;;;;;;;36.64;19.39;100312.56;5092055;28;20067;-66
2022/08/24 11:46:46;;;;;;;2.65;1.10;;;;;;;36.74;20.09;100313.28;5091766;28;20524;-68
2022/08/24 11:49:36;;;;;;;1.35;1.10;;;;;;;36.47;20.39;100320.34;5091666;28;20040;-66
2022/08/24 11:52:38;;;;;;;1.75;1.08;;;;;;;36.58;19.78;100316.75;5091788;28;20392;-66
2022/08/24 11:55:26;;;;;;;2.20;1.13;;;;;;;36.25;20.49;100311.25;5073666;28;20044;-66
2022/08/24 11:58:01;;;;;;;2.05;1.10;;;;;;;36.03;20.19;100309.72;5091806;28;20032;-66
2022/08/24 12:00:38;;;;;;;1.27;1.13;;;;;;;36.20;21.05;100324.53;5091381;28;20401;-65
2022/08/24 12:03:27;;;;;;;1.30;1.20;;;;;;;36.53;20.73;100318.94;5091991;28;20028;-66
2022/08/24 12:06:06;;;;;;;2.42;1.10;;;;;;;37.07;20.33;100307.59;5091827;28;20032;-65
2022/08/24 12:08:37;;;;;;;1.90;1.20;;;;;;;37.03;20.44;100310.25;5091723;28;20094;-66
2022/08/24 12:11:42;;;;;;;2.35;1.20;;;;;;;37.12;20.47;100304.59;5091163;28;20047;-65
2022/08/24 12:14:20;;;;;;;1.85;1.20;;;;;;;35.88;21.39;100311.16;5089797;28;20048;-66
2022/08/24 12:17:03;;;;;;;1.60;1.30;;;;;;;36.86;21.28;100310.50;5073402;28;20032;-66
2022/08/24 12:19:33;;;;;;;1.45;1.05;;;;;;;37.35;20.36;100310.44;5091251;28;20044;-67
2022/08/24 12:22:07;;;;;;;2.17;1.23;;;;;;;37.11;20.70;100295.47;5091388;28;20043;-66
2022/08/24 12:24:37;;;;;;;1.80;1.48;;;;;;;37.70;20.41;100294.81;5091424;28;20491;-66
2022/08/24 12:27:13;;;;;;;1.75;1.27;;;;;;;37.61;20.23;100283.03;5091507;28;20028;-65
2022/08/24 12:30:10;;;;;;;1.70;1.33;;;;;;;37.50;19.90;100287.50;5091242;28;20105;-64
2022/08/24 12:32:45;;;;;;;1.73;1.10;;;;;;;37.33;20.29;100290.53;5085310;28;20044;-66
2022/08/24 12:35:24;;;;;;;1.70;1.30;;;;;;;37.75;19.79;100277.84;5091461;28;20119;-66
2022/08/24 12:37:58;;;;;;;1.42;1.33;;;;;;;37.39;19.89;100289.97;5073260;28;20458;-66
2022/08/24 12:40:51;;;;;;;2.05;1.60;;;;;;;37.52;20.19;100279.59;5089704;28;20039;-66
2022/08/24 12:43:38;;;;;;;1.30;1.00;;;;;;;37.51;19.39;100283.56;5093302;28;20040;-64
2022/08/24 12:46:05;;;;;;;1.63;1.30;;;;;;;37.17;20.45;100285.72;5095413;28;20101;-66
2022/08/24 12:48:52;;;;;;;1.85;1.10;;;;;;;37.63;20.43;100285.47;5095294;28;20440;-66
2022/08/24 12:51:55;;;;;;;3.92;1.38;;;;;;;38.14;19.44;100275.34;5095148;28;20032;-65
2022/08/24 12:54:41;;;;;;;1.58;1.20;;;;;;;37.67;19.17;100283.59;5095258;28;20064;-66
2022/08/24 12:57:32;;;;;;;1.20;1.10;;;;;;;38.04;19.23;100272.28;5095176;28;20039;-65
2022/08/24 13:00:12;;;;;;;1.60;1.10;;;;;;;38.10;19.40;100282.78;5094720;28;20109;-67
2022/08/24 13:02:44;;;;;;;1.38;1.08;;;;;;;38.37;18.69;100274.75;5095080;28;20032;-66
2022/08/24 13:05:17;;;;;;;1.23;1.10;;;;;;;37.90;20.05;100276.31;5095114;28;20107;-66
2022/08/24 13:07:49;;;;;;;1.52;1.00;;;;;;;38.57;18.94;100273.66;5095141;28;20046;-66
2022/08/24 13:10:36;;;;;;;1.20;1.10;;;;;;;37.95;18.55;100278.00;5094572;28;20039;-66
2022/08/24 13:13:13;;;;;;;1.63;1.20;;;;;;;38.58;18.77;100268.88;5094856;28;20040;-66
2022/08/24 13:15:56;;;;;;;2.78;1.40;;;;;;;38.14;19.19;100266.19;5094837;28;20040;-66
2022/08/24 13:18:44;;;;;;;1.73;1.13;;;;;;;38.60;18.54;100260.97;5094728;28;20366;-67
2022/08/24 13:21:16;;;;;;;1.15;1.05;;;;;;;38.52;18.14;100260.81;5094543;28;20044;-66
2022/08/24 13:23:41;;;;;;;1.40;1.10;;;;;;;37.92;17.95;100265.66;5094183;28;20036;-66
2022/08/24 13:26:25;;;;;;;1.60;1.03;;;;;;;38.25;18.00;100256.16;5092608;28;20039;-66
2022/08/24 13:28:54;;;;;;;1.60;1.15;;;;;;;38.59;18.15;100253.81;5094371;28;20043;-66
2022/08/24 13:31:32;;;;;;;2.05;1.02;;;;;;;38.17;18.90;100249.59;5093888;28;20034;-66
2022/08/24 13:34:20;;;;;;;1.50;1.00;;;;;;;37.94;19.05;100243.84;5094536;28;20040;-66
2022/08/24 13:37:11;;;;;;;1.73;1.00;;;;;;;38.64;18.19;100243.22;5094191;28;20040;-65
2022/08/24 13:40:01;;;;;;;4.70;1.08;;;;;;;38.48;18.75;100242.44;5093994;28;20060;-65
2022/08/24 13:42:54;;;;;;;2.25;1.10;;;;;;;38.45;18.39;100237.59;5094086;28;20034;-65
2022/08/24 13:45:50;;;;;;;1.10;1.00;;;;;;;37.77;18.99;100233.06;5084339;28;20177;-66
2022/08/24 13:48:33;;;;;;;1.55;1.10;;;;;;;37.36;18.62;100235.09;5082765;28;20044;-65
2022/08/24 13:51:25;;;;;;;1.27;1.00;;;;;;;36.17;19.19;100226.22;5078831;28;20024;-66
2022/08/24 13:54:04;;;;;;;0.70;0.70;;;;;;;35.69;20.36;100227.75;5082684;28;20107;-67
2022/08/24 14:05:22;;;;;;;1.40;1.20;;;;;;;35.10;21.29;100222.41;5091419;28;20044;-65
2022/08/24 14:08:25;;;;;;;1.05;0.95;;;;;;;34.80;21.79;100224.38;5092881;28;20137;-65
2022/08/24 14:11:09;;;;;;;2.05;1.02;;;;;;;34.49;22.44;100221.97;5086576;28;20405;-65
2022/08/24 14:13:48;;;;;;;1.10;1.00;;;;;;;34.39;22.05;100212.09;5086549;28;20043;-66
2022/08/24 14:19:29;;;;;;;1.52;1.10;;;;;;;34.05;22.55;100215.03;5083706;28;20032;-65
2022/08/24 14:22:09;;;;;;;1.23;1.13;;;;;;;33.75;22.76;100206.63;5083503;28;20024;-66
2022/08/24 14:25:08;;;;;;;1.00;0.82;;;;;;;33.50;23.44;100205.56;5087591;28;20028;-64
2022/08/24 14:27:50;;;;;;;1.60;0.90;;;;;;;33.32;23.36;100206.69;5083231;28;20127;-65
2022/08/24 14:30:15;;;;;;;1.42;0.90;;;;;;;33.20;23.67;100201.84;5083452;28;20040;-65
2022/08/24 14:33:02;;;;;;;1.10;1.00;;;;;;;33.03;24.24;100199.88;5067748;28;20022;-65
2022/08/24 14:35:35;;;;;;;;;;;;;;;32.99;24.43;100200.84;5088673;28;20100;-65
2022/08/24 14:38:14;;;;;;;1.30;1.02;;;;;;;32.61;24.79;100201.44;5093644;28;19965;-65
2022/08/24 14:40:58;;;;;;;1.20;1.10;;;;;;;32.81;25.10;100189.78;5092806;28;20031;-65
2022/08/24 14:44:02;;;;;;;1.42;1.33;;;;;;;32.63;25.10;100193.66;5093233;28;20032;-65
2022/08/24 14:47:02;;;;;;;2.13;1.10;;;;;;;32.63;24.90;100194.47;5074825;28;20085;-65
2022/08/24 14:49:34;;;;;;;1.42;1.15;;;;;;;32.68;24.78;100183.28;5053600;28;20040;-65
2022/08/24 14:52:17;;;;;;;1.30;1.10;;;;;;;32.57;24.74;100190.25;5092866;28;20054;-66
2022/08/24 14:55:20;;;;;;;1.98;1.33;;;;;;;32.23;24.47;100184.63;5092882;28;20135;-66
2022/08/24 14:58:12;;;;;;;0.98;0.88;;;;;;;32.22;24.96;100185.75;5062309;28;20055;-65
2022/08/24 15:01:09;;;;;;;1.20;1.10;;;;;;;32.25;25.01;100185.91;5047003;28;20051;-66
2022/08/24 15:04:05;;;;;;;0.80;0.80;;;;;;;32.29;25.22;100180.59;5092557;28;20489;-65
2022/08/24 15:06:47;;;;;;;;;;;;;;;32.32;25.90;100183.50;5092473;28;20043;-66
2022/08/24 15:09:24;;;;;;;1.25;1.10;;;;;;;32.17;25.09;100181.19;5092243;28;19955;-66
2022/08/24 15:11:54;;;;;;;1.30;1.00;;;;;;;32.01;26.27;100179.97;5092330;28;20524;-65
2022/08/24 15:14:47;;;;;;;1.05;0.98;;;;;;;31.97;25.50;100177.06;5092467;28;20492;-66
2022/08/24 15:17:16;;;;;;;1.75;1.30;;;;;;;31.98;25.66;100175.13;5088662;28;20055;-66
2022/08/24 15:20:02;;;;;;;1.15;1.02;;;;;;;31.94;25.32;100174.94;5091996;28;20048;-66
2022/08/24 15:22:44;;;;;;;1.40;1.25;;;;;;;31.80;25.45;100176.97;5092430;28;20152;-66
2022/08/24 15:25:24;;;;;;;1.30;1.20;;;;;;;31.76;26.04;100185.03;5092399;28;20075;-66
2022/08/24 15:27:55;;;;;;;2.03;1.05;;;;;;;31.64;25.96;100173.00;5092219;28;20039;-66
2022/08/24 15:30:40;;;;;;;1.45;1.13;;;;;;;31.74;26.22;100162.50;5091897;28;20115;-67
2022/08/24 15:33:15;;;;;;;1.67;1.08;;;;;;;31.77;25.47;100172.09;5092264;28;20074;-66
2022/08/24 15:35:47;;;;;;;2.20;1.25;;;;;;;31.71;25.43;100165.91;5092176;28;20093;-66
2022/08/24 15:38:34;;;;;;;2.13;1.30;;;;;;;31.59;25.51;100172.00;5091975;28;20431;-66
2022/08/24 15:41:24;;;;;;;1.52;1.13;;;;;;;31.66;25.44;100166.03;5092075;28;20078;-66
2022/08/24 15:44:24;;;;;;;0.90;0.70;;;;;;;31.67;24.56;100167.66;5092156;28;20032;-66
2022/08/24 15:46:55;;;;;;;1.15;0.95;;;;;;;31.65;24.24;100167.16;5031198;28;20079;-66
2022/08/24 15:49:29;;;;;;;1.17;0.90;;;;;;;31.41;24.52;100162.00;5091667;28;20040;-66
2022/08/24 15:52:05;;;;;;;1.55;1.20;;;;;;;31.31;24.63;100159.53;5091719;28;20341;-68
2022/08/24 15:54:40;;;;;;;1.67;0.90;;;;;;;31.42;24.44;100166.38;5091892;28;20035;-68
2022/08/24 15:57:17;;;;;;;1.42;1.10;;;;;;;31.41;23.89;100167.50;5091720;28;20098;-67
2022/08/24 15:59:42;;;;;;;3.33;2.03;;;;;;;31.25;24.27;100163.53;5091405;28;20114;-67
2022/08/24 16:02:29;;;;;;;2.42;1.42;;;;;;;31.28;24.17;100171.13;5091688;28;20188;-67
2022/08/24 16:05:12;;;;;;;1.83;1.10;;;;;;;31.33;23.99;100166.31;5091637;28;20043;-67
2022/08/24 16:08:02;;;;;;;0.95;0.82;;;;;;;31.36;24.26;100167.63;5091522;28;20481;-68
2022/08/24 16:10:27;;;;;;;1.20;1.00;;;;;;;31.29;24.51;100167.25;5091217;28;20031;-67
2022/08/24 16:13:10;;;;;;;1.10;1.00;;;;;;;31.32;24.74;100170.19;5091415;28;20059;-67
2022/08/24 16:15:43;;;;;;;1.20;1.00;;;;;;;31.33;24.79;100168.25;5091525;28;20111;-68
2022/08/24 16:18:09;;;;;;;2.50;1.08;;;;;;;31.34;24.79;100167.13;5073241;28;20085;-67
2022/08/24 16:20:35;;;;;;;1.73;1.00;;;;;;;31.33;24.46;100165.50;5091043;28;20122;-67
2022/08/24 16:23:05;;;;;;;1.35;0.82;;;;;;;31.31;24.35;100170.53;5091594;28;20039;-68
2022/08/24 16:25:43;;;;;;;1.70;0.82;;;;;;;31.25;24.00;100160.78;5091422;28;20047;-68
2022/08/24 16:28:10;;;;;;;1.17;1.08;;;;;;;31.23;24.49;100165.72;5091459;28;20039;-68
2022/08/24 16:30:45;;;;;;;1.20;1.00;;;;;;;31.17;25.09;100166.97;5091078;28;20407;-68
2022/08/24 16:33:33;;;;;;;1.08;0.98;;;;;;;31.11;25.69;100165.50;5091342;28;20549;-68
2022/08/24 16:36:00;;;;;;;1.55;0.93;;;;;;;31.12;25.83;100159.69;5091195;28;20131;-69
2022/08/24 16:38:28;;;;;;;1.75;1.20;;;;;;;31.06;25.90;100160.91;5091270;28;20047;-67
2022/08/24 16:40:56;;;;;;;1.00;0.90;;;;;;;31.08;26.36;100170.47;5090836;28;20085;-68
2022/08/24 16:43:22;;;;;;;2.35;1.15;;;;;;;31.04;26.55;100165.94;5091348;28;20076;-67
2022/08/24 16:45:47;;;;;;;1.88;0.77;;;;;;;31.04;25.82;100160.44;5091224;28;20116;-67
2022/08/24 16:48:13;;;;;;;1.30;1.08;;;;;;;31.02;26.09;100155.22;5091657;28;20417;-66
2022/08/24 16:50:38;;;;;;;1.48;1.13;;;;;;;31.01;26.64;100161.84;5091109;28;20150;-68